GBE weather

Sir Seretse Khama International Airport
Gaborone, South-East District, Botswana

Public forecast

Using degrees Celsius for public forecast. Weather courtesy of forecast.io.

Current aviation weather report (METAR) for Sir Seretse Khama International Airport

Retrieved 2020/05/29 19:00 UTC (44 minutes ago):

FBSK 291900Z 21002KT CAVOK 10/M03 Q1023 NOSIG

Aviation forecast (TAF) for Sir Seretse Khama International Airport

Retrieved 2020/05/29 18:06 UTC (2 hours ago):

TAF TAF FBSK 291600Z 2918/3024 22004KT CAVOK